Time;durP1;ratioP1;P1;durP2;ratioP2;P2;SDS_P1;SDS_P2;PMS_P1;PMS_P2;Temp;Humidity;BMP_temperature;BMP_pressure;BME280_temperature;BME280_humidity;BME280_pressure;Samples;Min_cycle;Max_cycle;Signal;HPM_P1;HPM_P2
2022/08/11 00:01:25;;;;;;;8.02;4.03;;;19.20;99.90;;;;;;5037146;28;20045;-83
2022/08/11 00:04:03;;;;;;;5.15;2.95;;;19.10;99.90;;;;;;5036592;28;20073;-83
2022/08/11 00:06:39;;;;;;;4.45;3.13;;;19.10;99.90;;;;;;5035993;28;20045;-83
2022/08/11 00:09:15;;;;;;;;;;;19.00;99.90;;;;;;5003828;28;20179;-83
2022/08/11 00:11:48;;;;;;;3.70;3.20;;;18.90;99.90;;;;;;5035240;28;19985;-83
2022/08/11 00:14:22;;;;;;;4.80;3.17;;;18.90;99.90;;;;;;5018390;28;20136;-83
2022/08/11 00:16:57;;;;;;;4.88;3.75;;;18.90;99.90;;;;;;5035486;28;20041;-83
2022/08/11 00:19:29;;;;;;;4.00;3.35;;;18.90;99.90;;;;;;5019318;28;20042;-83
2022/08/11 00:21:55;;;;;;;4.32;3.60;;;18.90;99.90;;;;;;5035968;28;20460;-83
2022/08/11 00:24:23;;;;;;;4.57;3.40;;;18.90;99.90;;;;;;5019393;28;20060;-83
2022/08/11 00:26:51;;;;;;;5.15;3.85;;;18.90;99.90;;;;;;5035197;28;20038;-83
2022/08/11 00:29:17;;;;;;;8.45;3.40;;;18.80;99.90;;;;;;5020120;28;20048;-83
2022/08/11 00:31:50;;;;;;;6.25;3.30;;;18.80;99.90;;;;;;5020036;28;20583;-83
2022/08/11 00:34:20;;;;;;;4.88;3.13;;;18.80;99.90;;;;;;5036030;28;20039;-83
2022/08/11 00:37:17;;;;;;;4.93;3.53;;;18.70;99.90;;;;;;5035660;28;20045;-83
2022/08/11 00:39:47;;;;;;;4.25;3.42;;;18.70;99.90;;;;;;5024534;28;20191;-83
2022/08/11 00:42:50;;;;;;;4.07;3.58;;;18.70;99.90;;;;;;5019569;28;20094;-83
2022/08/11 00:45:38;;;;;;;6.10;3.35;;;18.70;99.90;;;;;;5036539;28;20105;-83
2022/08/11 00:48:27;;;;;;;4.80;3.70;;;18.70;99.90;;;;;;5036573;28;20044;-83
2022/08/11 00:51:16;;;;;;;4.45;3.45;;;18.60;99.90;;;;;;5034998;28;20037;-84
2022/08/11 00:53:51;;;;;;;4.45;3.63;;;18.60;99.90;;;;;;5017662;28;20489;-83
2022/08/11 00:56:23;;;;;;;4.32;3.92;;;18.50;99.90;;;;;;5017600;28;20041;-83
2022/08/11 00:59:11;;;;;;;4.55;4.00;;;18.40;99.90;;;;;;5033897;28;20045;-83
2022/08/11 01:01:37;;;;;;;3.97;3.63;;;18.40;99.90;;;;;;5017020;28;20048;-83
2022/08/11 01:04:16;;;;;;;5.20;3.95;;;18.30;99.90;;;;;;5017591;28;20150;-83
2022/08/11 01:06:48;;;;;;;5.65;4.10;;;18.20;99.90;;;;;;5033894;28;20070;-82
2022/08/11 01:09:20;;;;;;;4.50;3.70;;;18.20;99.90;;;;;;5033511;28;20061;-83
2022/08/11 01:12:10;;;;;;;4.18;3.75;;;18.20;99.90;;;;;;5033501;28;20044;-83
2022/08/11 01:14:52;;;;;;;6.93;4.07;;;18.20;99.90;;;;;;5016993;28;20139;-83
2022/08/11 01:17:55;;;;;;;6.68;3.80;;;18.10;99.90;;;;;;5032595;28;20034;-83
2022/08/11 01:20:58;;;;;;;5.07;3.78;;;18.00;99.90;;;;;;5016866;28;20037;-84
2022/08/11 01:23:47;;;;;;;5.57;4.32;;;18.00;99.90;;;;;;5016577;28;20076;-83
2022/08/11 01:26:37;;;;;;;5.35;4.32;;;18.00;99.90;;;;;;5016403;28;20052;-83
2022/08/11 01:29:28;;;;;;;5.82;4.38;;;18.00;99.90;;;;;;5032999;28;20046;-84
2022/08/11 01:32:41;;;;;;;5.13;3.83;;;17.90;99.90;;;;;;5033053;28;20041;-83
2022/08/11 01:35:25;;;;;;;4.55;3.83;;;17.90;99.90;;;;;;4989881;28;20046;-83
2022/08/11 01:38:29;;;;;;;5.47;4.30;;;17.80;99.90;;;;;;5032576;28;20411;-84
2022/08/11 01:41:22;;;;;;;4.07;3.67;;;17.80;99.90;;;;;;5010096;28;20553;-84
2022/08/11 01:50:15;;;;;;;6.22;4.40;;;17.70;99.90;;;;;;5033334;28;20073;-83
2022/08/11 01:52:56;;;;;;;5.05;4.55;;;17.60;99.90;;;;;;5032766;28;20041;-84
2022/08/11 01:55:36;;;;;;;5.60;4.05;;;17.60;99.90;;;;;;5016004;28;20049;-83
2022/08/11 01:58:39;;;;;;;6.20;4.00;;;17.70;99.90;;;;;;5032647;28;20037;-83
2022/08/11 02:01:31;;;;;;;4.78;4.10;;;17.70;99.90;;;;;;5016625;28;20057;-83
2022/08/11 02:04:09;;;;;;;5.18;4.28;;;17.60;99.90;;;;;;5032919;28;20535;-83
2022/08/11 02:06:53;;;;;;;5.30;4.80;;;17.60;99.90;;;;;;5032400;28;20053;-83
2022/08/11 02:09:42;;;;;;;4.32;3.92;;;17.60;99.90;;;;;;5016274;28;20045;-83
2022/08/11 02:12:15;;;;;;;5.15;4.03;;;17.60;99.90;;;;;;5015962;28;20512;-83
2022/08/11 02:15:05;;;;;;;6.80;4.63;;;17.50;99.90;;;;;;5032418;28;20037;-84
2022/08/11 02:17:38;;;;;;;5.78;4.60;;;17.50;99.90;;;;;;5032534;28;20081;-83
2022/08/11 02:26:54;;;;;;;6.25;4.43;;;17.50;99.90;;;;;;5032661;28;20046;-84
2022/08/11 02:29:28;;;;;;;5.93;4.20;;;17.40;99.90;;;;;;5007421;28;20096;-83
2022/08/11 02:35:03;;;;;;;;;;;17.40;99.90;;;;;;5036522;28;20045;-83
2022/08/11 02:37:31;;;;;;;5.65;4.25;;;17.40;99.90;;;;;;5052770;28;19967;-84
2022/08/11 02:39:57;;;;;;;4.90;4.35;;;17.30;99.90;;;;;;5020130;28;20041;-83
2022/08/11 02:42:28;;;;;;;5.63;4.70;;;17.30;99.90;;;;;;5019341;28;20161;-83
2022/08/11 02:45:30;;;;;;;5.00;4.38;;;17.20;99.90;;;;;;5036241;28;20053;-83
2022/08/11 02:51:05;;;;;;;6.95;4.63;;;17.10;99.90;;;;;;5036420;28;20099;-83
2022/08/11 02:53:48;;;;;;;7.38;4.63;;;17.10;99.90;;;;;;5019827;28;20052;-83
2022/08/11 02:56:51;;;;;;;5.95;4.90;;;17.00;99.90;;;;;;5036033;28;20494;-83
2022/08/11 03:02:14;;;;;;;6.50;4.78;;;17.00;99.90;;;;;;5035751;28;20179;-83
2022/08/11 03:05:06;;;;;;;6.30;4.95;;;17.00;99.90;;;;;;5035403;28;20044;-83
2022/08/11 03:07:54;;;;;;;5.85;4.65;;;16.90;99.90;;;;;;5035519;28;20561;-83
2022/08/11 03:10:32;;;;;;;6.38;5.00;;;16.90;99.90;;;;;;5034656;28;20049;-83
2022/08/11 03:19:31;;;;;;;6.05;4.90;;;16.80;99.90;;;;;;5035777;28;20096;-84
2022/08/11 03:22:20;;;;;;;6.70;5.28;;;16.80;99.90;;;;;;5036070;28;20524;-83
2022/08/11 03:25:17;;;;;;;8.07;5.22;;;16.80;99.90;;;;;;5019336;28;20500;-83
2022/08/11 03:27:56;;;;;;;7.22;4.57;;;16.80;99.90;;;;;;5035352;28;20045;-84
2022/08/11 03:30:44;;;;;;;5.95;5.22;;;16.80;99.90;;;;;;5034255;28;20057;-76
2022/08/11 03:36:45;;;;;;;5.47;4.80;;;16.70;99.90;;;;;;5033771;28;20046;-76
2022/08/11 03:39:37;;;;;;;7.60;5.60;;;16.70;99.90;;;;;;5017274;28;20049;-76
2022/08/11 03:42:21;;;;;;;7.00;5.15;;;16.70;99.90;;;;;;5032737;28;20057;-76
2022/08/11 03:44:59;;;;;;;7.68;5.13;;;16.60;99.90;;;;;;5033817;28;20103;-76
2022/08/11 03:47:43;;;;;;;6.30;5.40;;;16.60;99.90;;;;;;5017614;28;20410;-76
2022/08/11 03:50:24;;;;;;;5.97;5.15;;;16.60;99.90;;;;;;5017332;28;20096;-76
2022/08/11 03:53:15;;;;;;;8.80;5.35;;;16.60;99.90;;;;;;5016815;28;20088;-76
2022/08/11 03:56:03;;;;;;;5.80;5.00;;;16.60;99.90;;;;;;5017298;28;20055;-76
2022/08/11 03:59:04;;;;;;;6.95;5.88;;;16.60;99.90;;;;;;5033863;28;20048;-76
2022/08/11 04:01:41;;;;;;;6.22;5.43;;;16.60;99.90;;;;;;5033409;28;20513;-76
2022/08/11 04:04:13;;;;;;;8.73;6.07;;;16.50;99.90;;;;;;5016894;28;20052;-76
2022/08/11 04:07:12;;;;;;;6.40;5.72;;;16.50;99.90;;;;;;5016808;28;20045;-76
2022/08/11 04:10:21;;;;;;;7.00;6.22;;;16.50;99.90;;;;;;5016928;28;20447;-76
2022/08/11 04:13:16;;;;;;;8.60;5.63;;;16.50;99.90;;;;;;5033506;28;20045;-76
2022/08/11 04:16:20;;;;;;;7.00;6.30;;;16.50;99.90;;;;;;5033234;28;20052;-76
2022/08/11 04:18:57;;;;;;;8.18;7.07;;;16.50;99.90;;;;;;5016789;28;20498;-76
2022/08/11 04:21:44;;;;;;;8.57;6.65;;;16.40;99.90;;;;;;5016775;28;20164;-76
2022/08/11 04:24:35;;;;;;;8.63;7.05;;;16.40;99.90;;;;;;5016890;28;20045;-76
2022/08/11 04:27:49;;;;;;;7.75;6.60;;;16.40;99.90;;;;;;5004823;28;20076;-76
2022/08/11 04:30:26;;;;;;;8.55;6.43;;;16.40;99.90;;;;;;5016663;28;20041;-76
2022/08/11 04:32:57;;;;;;;7.80;6.50;;;16.40;99.90;;;;;;5016826;28;20046;-76
2022/08/11 04:35:29;;;;;;;8.30;7.10;;;16.40;99.90;;;;;;5016848;28;20043;-76
2022/08/11 04:38:23;;;;;;;7.85;6.70;;;16.30;99.90;;;;;;5016587;28;20497;-76
2022/08/11 04:41:15;;;;;;;8.13;6.70;;;16.30;99.90;;;;;;5016942;28;20048;-76
2022/08/11 04:44:17;;;;;;;9.73;6.88;;;16.30;99.90;;;;;;5032951;28;20065;-76
2022/08/11 04:47:01;;;;;;;10.15;6.80;;;16.30;99.90;;;;;;5016472;28;20049;-76
2022/08/11 05:02:59;;;;;;;7.45;6.72;;;16.30;99.90;;;;;;5032733;28;20054;-76
2022/08/11 05:05:39;;;;;;;8.77;7.30;;;16.20;99.90;;;;;;5032363;28;20041;-76
2022/08/11 05:08:27;;;;;;;11.10;6.85;;;16.20;99.90;;;;;;5032735;28;20107;-76
2022/08/11 05:11:30;;;;;;;9.05;7.85;;;16.30;99.90;;;;;;5016344;28;20472;-76
2022/08/11 05:37:06;;;;;;;9.30;7.75;;;16.50;99.90;;;;;;5031938;28;20052;-76
2022/08/11 05:56:53;;;;;;;10.05;7.15;;;16.80;99.90;;;;;;5031966;28;20049;-76
2022/08/11 05:59:20;;;;;;;10.77;8.00;;;16.90;99.90;;;;;;5031898;28;20465;-76
2022/08/11 06:01:46;;;;;;;8.55;7.65;;;17.00;99.90;;;;;;5031680;28;20122;-76
2022/08/11 06:04:23;;;;;;;8.85;7.28;;;17.00;99.90;;;;;;5016880;28;20441;-76
2022/08/11 06:06:58;;;;;;;9.25;7.30;;;17.10;99.90;;;;;;5018936;28;20081;-76
2022/08/11 06:09:35;;;;;;;8.88;7.18;;;17.20;99.90;;;;;;5019002;28;20070;-76
2022/08/11 06:12:10;;;;;;;10.65;7.28;;;17.30;99.90;;;;;;5019185;28;20168;-76
2022/08/11 06:14:42;;;;;;;7.80;6.95;;;17.40;99.90;;;;;;5019270;28;20095;-76
2022/08/11 06:17:08;;;;;;;9.10;7.22;;;17.40;99.90;;;;;;5019729;28;20042;-77
2022/08/11 06:19:38;;;;;;;8.35;7.18;;;17.50;99.90;;;;;;5035649;28;20047;-76
2022/08/11 06:22:07;;;;;;;10.68;7.43;;;17.60;99.90;;;;;;5019413;28;20076;-76
2022/08/11 06:24:35;;;;;;;8.23;7.05;;;17.60;99.90;;;;;;5036159;28;20581;-83
2022/08/11 06:27:02;;;;;;;11.00;7.50;;;17.70;99.90;;;;;;5037202;28;20124;-83
2022/08/11 06:29:30;;;;;;;9.25;7.72;;;17.80;99.90;;;;;;5020844;28;20092;-83
2022/08/11 06:31:59;;;;;;;9.55;7.00;;;17.80;99.90;;;;;;5021352;28;20076;-83
2022/08/11 06:34:39;;;;;;;11.95;7.78;;;17.90;99.90;;;;;;5021221;28;20117;-83
2022/08/11 06:37:14;;;;;;;12.85;7.65;;;18.00;99.90;;;;;;5037112;28;20444;-83
2022/08/11 06:39:57;;;;;;;9.88;7.25;;;18.10;99.90;;;;;;5037162;28;20041;-83
2022/08/11 06:42:32;;;;;;;11.70;7.47;;;18.20;99.90;;;;;;5021155;28;20484;-83
2022/08/11 06:45:11;;;;;;;9.18;7.00;;;18.40;99.90;;;;;;5036096;28;20397;-83
2022/08/11 06:47:46;;;;;;;9.02;6.85;;;18.60;99.90;;;;;;5019315;28;20059;-83
2022/08/11 06:53:04;;;;;;;10.05;6.28;;;19.70;99.90;;;;;;5036319;28;20125;-83
2022/08/11 07:01:10;;;;;;;8.35;5.63;;;21.60;99.90;;;;;;5036218;28;20128;-83
2022/08/11 07:03:43;;;;;;;8.18;5.60;;;22.10;99.90;;;;;;5035800;28;20041;-83
2022/08/11 07:06:20;;;;;;;10.98;5.78;;;22.70;99.90;;;;;;5035873;28;20106;-83
2022/08/11 07:28:53;;;;;;;;;;;24.00;99.90;;;;;;5035635;28;20056;-83
2022/08/11 07:28:59;;;;;;;5.72;4.05;;;24.60;99.90;;;;;;5035633;28;20529;-83
2022/08/11 07:31:28;;;;;;;6.05;4.05;;;24.70;99.90;;;;;;5003893;28;20041;-83
2022/08/11 07:34:23;;;;;;;11.80;3.90;;;24.80;99.90;;;;;;5019591;28;20042;-83
2022/08/11 07:36:55;;;;;;;7.43;3.60;;;25.10;99.90;;;;;;5029883;28;20071;-83
2022/08/11 07:39:27;;;;;;;5.28;3.55;;;25.10;99.90;;;;;;5019076;28;20124;-83
2022/08/11 07:41:56;;;;;;;7.50;3.67;;;25.30;99.90;;;;;;5035058;28;20077;-83
2022/08/11 07:44:28;;;;;;;9.52;3.30;;;25.40;99.90;;;;;;5035448;28;20085;-83
2022/08/11 07:52:32;;;;;;;3.67;2.78;;;25.70;99.90;;;;;;5035063;28;20048;-83
2022/08/11 07:55:25;;;;;;;5.47;3.25;;;25.70;99.90;;;;;;5034456;28;20046;-83
2022/08/11 08:17:52;;;;;;;5.80;2.40;;;26.20;98.50;;;;;;5034229;28;20091;-84
2022/08/11 08:20:20;;;;;;;4.28;2.35;;;26.20;98.10;;;;;;5018731;28;20033;-84
2022/08/11 08:22:51;;;;;;;4.15;1.88;;;26.20;98.00;;;;;;5034400;28;20102;-83
2022/08/11 08:25:17;;;;;;;3.55;2.08;;;26.20;98.10;;;;;;5034930;28;20037;-84
2022/08/11 08:27:44;;;;;;;3.78;2.20;;;26.20;98.10;;;;;;5018534;28;20041;-84
2022/08/11 08:32:59;;;;;;;8.35;2.10;;;26.00;96.20;;;;;;5021017;28;20256;-84
2022/08/11 08:35:25;;;;;;;6.03;2.08;;;25.90;96.20;;;;;;5002574;28;20037;-84
2022/08/11 08:37:52;;;;;;;5.53;2.20;;;25.80;96.50;;;;;;5034257;28;20049;-84
2022/08/11 08:40:18;;;;;;;4.45;2.10;;;25.80;96.90;;;;;;5034728;28;20045;-84
2022/08/11 08:42:58;;;;;;;4.97;1.80;;;25.80;96.80;;;;;;5034927;28;20196;-84
2022/08/11 08:45:25;;;;;;;3.25;1.90;;;25.80;96.50;;;;;;5034076;28;20033;-83
2022/08/11 08:47:58;;;;;;;7.65;2.13;;;25.90;95.90;;;;;;5033715;28;20168;-84
2022/08/11 08:51:32;;;;;;;7.65;1.83;;;25.90;96.10;;;;;;5033611;28;20490;-84
2022/08/11 08:53:16;;;;;;;4.40;1.73;;;25.90;95.70;;;;;;5033388;28;20049;-84
2022/08/11 08:55:44;;;;;;;6.47;2.20;;;25.80;95.60;;;;;;5033415;28;20049;-84
2022/08/11 08:58:12;;;;;;;3.33;1.75;;;25.80;95.10;;;;;;5001024;28;20080;-84
2022/08/11 09:00:45;;;;;;;8.63;2.00;;;25.70;95.10;;;;;;5033977;28;20045;-84
2022/08/11 09:03:12;;;;;;;4.75;2.00;;;25.70;95.10;;;;;;5034260;28;20412;-84
2022/08/11 09:05:40;;;;;;;5.93;1.83;;;25.70;95.50;;;;;;5018131;28;20128;-83
2022/08/11 09:08:07;;;;;;;4.65;1.63;;;25.70;95.40;;;;;;5017634;28;20048;-84
2022/08/11 09:10:33;;;;;;;6.05;1.70;;;25.70;95.00;;;;;;5017697;28;20049;-84
2022/08/11 09:13:03;;;;;;;5.30;1.75;;;25.70;94.20;;;;;;5001655;28;20077;-84
2022/08/11 09:15:29;;;;;;;5.85;1.80;;;25.70;94.10;;;;;;5033883;28;20091;-84
2022/08/11 09:18:04;;;;;;;3.28;1.40;;;25.80;92.90;;;;;;5017040;28;20520;-84
2022/08/11 09:20:35;;;;;;;5.75;1.45;;;25.80;93.00;;;;;;5033377;28;20137;-84
2022/08/11 09:28:36;;;;;;;6.05;1.42;;;26.00;90.80;;;;;;5033984;28;20460;-84
2022/08/11 09:31:04;;;;;;;3.92;1.45;;;26.00;90.70;;;;;;5016551;28;20547;-84
2022/08/11 09:33:31;;;;;;;3.58;1.60;;;26.10;90.20;;;;;;5016796;28;20516;-84
2022/08/11 09:40:27;;;;;;;5.40;1.40;;;26.20;89.30;;;;;;5000217;28;20037;-84
2022/08/11 09:41:31;;;;;;;2.83;1.13;;;26.50;88.20;;;;;;5005933;28;20472;-84
2022/08/11 09:44:59;;;;;;;4.85;1.40;;;26.60;86.40;;;;;;5033078;28;20061;-84
2022/08/11 09:46:59;;;;;;;7.15;1.80;;;26.70;84.50;;;;;;5020444;28;20089;-84
2022/08/11 09:49:26;;;;;;;2.95;1.60;;;26.80;81.80;;;;;;5033490;28;20552;-84
2022/08/11 09:51:53;;;;;;;8.23;1.63;;;26.80;81.10;;;;;;5032927;28;20045;-84
2022/08/11 09:54:22;;;;;;;3.65;1.50;;;26.80;81.90;;;;;;5033001;28;20581;-84
2022/08/11 09:59:35;;;;;;;4.88;1.75;;;26.80;80.40;;;;;;5019473;28;20569;-84
2022/08/11 10:02:03;;;;;;;5.22;2.10;;;26.80;80.00;;;;;;5032424;28;20051;-84
2022/08/11 10:04:41;;;;;;;8.90;1.88;;;26.80;79.10;;;;;;5017130;28;20472;-84
2022/08/11 10:07:09;;;;;;;7.28;1.95;;;26.90;79.50;;;;;;5033108;28;20041;-84
2022/08/11 10:09:49;;;;;;;5.72;1.90;;;26.80;79.00;;;;;;5016391;28;20042;-84
2022/08/11 10:12:26;;;;;;;7.32;2.25;;;26.80;79.20;;;;;;5032919;28;20029;-84
2022/08/11 10:20:37;;;;;;;4.30;1.60;;;26.90;77.40;;;;;;5032710;28;20618;-84
2022/08/11 10:28:35;;;;;;;2.42;1.80;;;26.90;75.20;;;;;;5033331;28;20469;-84
2022/08/11 10:33:59;;;;;;;7.32;1.70;;;26.90;75.80;;;;;;5032623;28;20060;-84
2022/08/11 10:36:27;;;;;;;7.97;2.13;;;27.00;75.80;;;;;;5000635;28;20508;-84
2022/08/11 10:38:53;;;;;;;11.55;1.80;;;27.00;75.40;;;;;;5016087;28;20045;-84
2022/08/11 10:44:06;;;;;;;6.55;1.60;;;27.10;74.00;;;;;;5018458;28;20072;-84
2022/08/11 10:49:17;;;;;;;5.95;1.88;;;27.10;72.90;;;;;;5032641;28;20052;-84
2022/08/11 11:00:05;;;;;;;3.55;1.88;;;27.20;72.80;;;;;;5020927;28;20049;-77
2022/08/11 11:02:32;;;;;;;3.15;1.88;;;27.20;72.90;;;;;;5018070;28;20041;-77
2022/08/11 11:05:18;;;;;;;5.68;1.85;;;27.20;73.80;;;;;;5018358;28;20445;-77
2022/08/11 11:07:55;;;;;;;4.20;1.73;;;27.30;73.50;;;;;;5035132;28;20052;-77
2022/08/11 11:10:21;;;;;;;8.05;1.90;;;27.30;73.40;;;;;;5017901;28;20041;-77
2022/08/11 11:18:34;;;;;;;4.05;1.60;;;27.40;71.70;;;;;;5036022;28;20083;-84
2022/08/11 11:21:14;;;;;;;6.78;1.70;;;27.40;71.80;;;;;;5035931;28;20043;-84
2022/08/11 11:23:57;;;;;;;3.83;1.65;;;27.40;71.60;;;;;;5019201;28;20045;-84
2022/08/11 11:26:54;;;;;;;4.85;1.80;;;27.40;71.00;;;;;;5019149;28;20045;-84
2022/08/11 11:29:29;;;;;;;5.53;1.73;;;27.50;71.60;;;;;;5020393;28;20037;-84
2022/08/11 11:32:17;;;;;;;4.63;1.77;;;27.50;70.50;;;;;;5019534;28;20045;-84
2022/08/11 11:35:25;;;;;;;5.28;1.90;;;27.50;70.70;;;;;;5036128;28;20315;-84
2022/08/11 11:37:52;;;;;;;2.25;1.67;;;27.50;70.30;;;;;;5036527;28;20124;-84
2022/08/11 11:40:22;;;;;;;4.10;1.92;;;27.60;70.00;;;;;;5020197;28;20076;-83
2022/08/11 11:42:50;;;;;;;3.95;1.73;;;27.60;70.10;;;;;;5036700;28;20045;-84
2022/08/11 11:45:19;;;;;;;4.13;1.60;;;27.60;70.10;;;;;;5034462;28;20041;-77
2022/08/11 11:47:51;;;;;;;2.55;1.67;;;27.60;70.30;;;;;;5017164;28;20052;-77
2022/08/11 11:50:33;;;;;;;3.25;1.58;;;27.60;69.00;;;;;;5033876;28;20064;-78
2022/08/11 11:53:02;;;;;;;2.58;1.73;;;27.70;69.30;;;;;;5033824;28;20124;-78
2022/08/11 11:55:29;;;;;;;2.88;1.70;;;27.70;69.90;;;;;;5033738;28;20482;-77
2022/08/11 12:03:27;;;;;;;2.97;1.75;;;27.90;68.60;;;;;;5033322;28;20045;-77
2022/08/11 12:05:53;;;;;;;5.85;1.70;;;28.00;67.80;;;;;;5016799;28;20077;-78
2022/08/11 12:08:21;;;;;;;6.10;1.73;;;28.10;67.30;;;;;;5017003;28;20052;-78
2022/08/11 12:14:02;;;;;;;3.00;1.73;;;28.20;65.60;;;;;;5019774;28;20513;-77
2022/08/11 12:16:28;;;;;;;2.55;1.52;;;28.10;67.20;;;;;;5016848;28;20052;-77
2022/08/11 12:18:58;;;;;;;2.75;1.60;;;28.10;67.50;;;;;;5000645;28;20045;-77
2022/08/11 12:21:26;;;;;;;4.35;1.70;;;28.10;67.50;;;;;;5016660;28;20045;-78
2022/08/11 12:29:18;;;;;;;2.70;1.48;;;28.40;64.90;;;;;;5033129;28;20052;-78
2022/08/11 12:31:44;;;;;;;2.47;1.40;;;28.40;64.10;;;;;;5032977;28;20045;-77
2022/08/11 12:34:13;;;;;;;5.47;1.45;;;28.50;64.30;;;;;;5016332;28;20522;-77
2022/08/11 12:36:41;;;;;;;5.65;1.50;;;28.60;63.90;;;;;;5032672;28;20041;-78
2022/08/11 12:39:10;;;;;;;2.03;1.45;;;28.60;63.20;;;;;;5032650;28;20041;-77
2022/08/11 12:47:14;;;;;;;4.82;1.55;;;29.00;62.30;;;;;;5032411;28;20049;-77
2022/08/11 12:52:35;;;;;;;5.25;1.63;;;29.30;61.80;;;;;;5032330;28;20052;-78
2022/08/11 12:55:11;;;;;;;4.38;1.60;;;29.60;63.00;;;;;;5032414;28;20080;-78
2022/08/11 13:06:05;;;;;;;2.90;1.70;;;31.40;61.80;;;;;;5020012;28;20417;-83
2022/08/11 13:08:36;;;;;;;3.33;1.60;;;31.80;61.40;;;;;;5017125;28;20049;-84
2022/08/11 13:13:48;;;;;;;;;;;32.60;60.50;;;;;;5019414;28;20042;-84
2022/08/11 13:16:15;;;;;;;2.00;1.23;;;32.90;60.10;;;;;;5033799;28;20369;-84
2022/08/11 13:18:42;;;;;;;2.53;1.40;;;33.20;58.60;;;;;;5000926;28;20099;-84
2022/08/11 13:21:13;;;;;;;2.97;1.17;;;33.50;56.20;;;;;;5017180;28;20053;-84
2022/08/11 13:23:40;;;;;;;2.38;1.50;;;33.70;55.50;;;;;;5032970;28;20056;-84
2022/08/11 13:26:07;;;;;;;2.30;1.50;;;34.00;55.60;;;;;;5016783;28;20045;-83
2022/08/11 13:28:35;;;;;;;3.25;1.63;;;34.20;54.30;;;;;;5032803;28;20049;-82
2022/08/11 13:31:13;;;;;;;4.13;1.30;;;34.40;53.80;;;;;;5033893;28;20033;-82
2022/08/11 13:33:45;;;;;;;2.05;1.40;;;34.50;53.80;;;;;;5035629;28;20042;-82
2022/08/11 13:36:14;;;;;;;2.58;1.60;;;34.80;53.60;;;;;;5017423;28;20049;-82
2022/08/11 13:38:42;;;;;;;1.52;1.17;;;34.90;53.10;;;;;;5015670;28;20421;-76
2022/08/11 13:43:54;;;;;;;2.83;1.35;;;35.00;52.30;;;;;;5031490;28;20529;-81
2022/08/11 13:46:23;;;;;;;2.13;1.33;;;35.10;52.70;;;;;;5017662;28;20585;-84
2022/08/11 13:48:51;;;;;;;4.25;1.45;;;35.10;51.20;;;;;;5033540;28;20053;-84
2022/08/11 13:51:30;;;;;;;3.17;1.40;;;34.80;51.80;;;;;;5016052;28;20084;-83
2022/08/11 13:54:04;;;;;;;3.70;1.70;;;34.50;52.20;;;;;;5016716;28;20057;-84
2022/08/11 13:56:32;;;;;;;3.17;1.38;;;34.40;51.30;;;;;;5033499;28;20045;-83
2022/08/11 13:59:00;;;;;;;2.72;1.20;;;34.10;51.50;;;;;;5032684;28;20397;-84
2022/08/11 14:01:32;;;;;;;5.85;1.67;;;33.80;51.60;;;;;;5032149;28;20042;-83
2022/08/11 14:04:07;;;;;;;4.03;1.60;;;33.60;51.10;;;;;;5015859;28;20496;-83
2022/08/11 14:06:35;;;;;;;2.50;1.45;;;33.30;51.10;;;;;;5032529;28;20077;-83
2022/08/11 14:09:06;;;;;;;2.88;1.50;;;33.00;52.70;;;;;;5033613;28;20406;-83
2022/08/11 14:14:22;;;;;;;4.30;1.50;;;32.70;53.10;;;;;;5033979;28;20041;-83
2022/08/11 14:16:50;;;;;;;4.60;1.52;;;32.50;52.70;;;;;;5033648;28;20038;-83
2022/08/11 14:19:20;;;;;;;4.13;1.60;;;32.40;52.90;;;;;;5016770;28;20037;-83
2022/08/11 14:22:06;;;;;;;2.88;1.27;;;32.20;53.80;;;;;;5017281;28;20131;-83
2022/08/11 14:24:38;;;;;;;5.03;1.58;;;32.10;54.10;;;;;;5016919;28;20077;-83
2022/08/11 14:27:06;;;;;;;2.53;1.45;;;32.10;53.50;;;;;;5037972;28;20079;-83
2022/08/11 14:29:37;;;;;;;3.67;1.70;;;32.00;53.00;;;;;;5020109;28;20044;-83
2022/08/11 14:32:06;;;;;;;2.65;1.40;;;31.90;53.90;;;;;;5037281;28;20048;-83
2022/08/11 14:34:34;;;;;;;2.97;1.45;;;31.80;54.00;;;;;;5038164;28;20120;-83
2022/08/11 14:37:04;;;;;;;4.60;1.50;;;31.60;53.80;;;;;;5037419;28;20041;-83
2022/08/11 14:39:36;;;;;;;2.53;1.40;;;31.60;53.80;;;;;;5037164;28;20045;-83
2022/08/11 14:47:53;;;;;;;3.10;1.40;;;31.30;53.70;;;;;;5013560;28;20053;-83
2022/08/11 14:50:22;;;;;;;3.22;1.83;;;31.30;54.90;;;;;;5036425;28;20045;-83
2022/08/11 14:52:50;;;;;;;3.28;1.55;;;31.30;55.50;;;;;;5036755;28;20581;-83
2022/08/11 14:58:01;;;;;;;;;;;31.30;53.90;;;;;;5036861;28;20207;-83
2022/08/11 15:00:28;;;;;;;3.53;1.70;;;31.20;55.20;;;;;;5020208;28;19920;-83
2022/08/11 15:03:10;;;;;;;2.70;1.60;;;31.10;54.40;;;;;;5036656;28;20050;-83
2022/08/11 15:05:39;;;;;;;9.23;1.60;;;31.10;54.10;;;;;;5036275;28;20101;-84
2022/08/11 15:08:05;;;;;;;2.95;1.40;;;31.00;54.50;;;;;;5036200;28;20033;-83
2022/08/11 15:10:32;;;;;;;2.67;1.40;;;31.00;54.50;;;;;;5036413;28;20034;-84
2022/08/11 15:12:58;;;;;;;3.60;1.60;;;31.00;54.40;;;;;;5020140;28;20044;-83
2022/08/11 15:18:15;;;;;;;3.97;1.30;;;31.00;54.30;;;;;;5022778;28;20057;-83
2022/08/11 15:26:18;;;;;;;3.90;1.42;;;30.80;54.10;;;;;;5022255;28;20053;-83
2022/08/11 15:37:28;;;;;;;6.78;1.48;;;30.80;55.50;;;;;;5035245;28;20452;-83
2022/08/11 15:46:01;;;;;;;8.90;1.63;;;30.70;54.90;;;;;;5015410;28;20053;-83
2022/08/11 15:48:32;;;;;;;3.13;1.63;;;30.70;54.70;;;;;;5035200;28;20091;-83
2022/08/11 15:51:08;;;;;;;3.00;1.40;;;30.70;55.20;;;;;;5037858;28;20038;-83
2022/08/11 15:53:39;;;;;;;;;;;30.70;55.30;;;;;;5036174;28;20085;-83
2022/08/11 15:56:05;;;;;;;2.22;1.52;;;30.60;55.40;;;;;;5020428;28;20281;-83
2022/08/11 16:04:14;;;;;;;4.85;1.70;;;30.60;56.00;;;;;;5035428;28;20138;-83
2022/08/11 16:07:02;;;;;;;7.22;1.75;;;30.60;56.10;;;;;;5035162;28;20049;-83
2022/08/11 16:09:34;;;;;;;3.92;1.70;;;30.50;56.80;;;;;;5019855;28;20386;-83
2022/08/11 16:12:03;;;;;;;5.18;1.55;;;30.50;57.10;;;;;;5036040;28;20103;-83
2022/08/11 16:17:24;;;;;;;1.70;1.38;;;30.40;56.40;;;;;;5035668;28;20064;-83
2022/08/11 16:19:53;;;;;;;4.85;1.60;;;30.40;56.10;;;;;;5035383;28;20540;-83
2022/08/11 16:22:36;;;;;;;3.03;1.48;;;30.40;56.20;;;;;;5035610;28;20081;-83
2022/08/11 16:25:05;;;;;;;4.90;1.67;;;30.40;56.70;;;;;;5017913;28;20037;-83
2022/08/11 16:27:37;;;;;;;1.88;1.60;;;30.40;56.30;;;;;;5034442;28;20099;-83
2022/08/11 16:30:07;;;;;;;5.03;1.42;;;30.40;56.40;;;;;;5017588;28;20034;-84
2022/08/11 16:32:37;;;;;;;2.53;1.67;;;30.40;56.60;;;;;;5017114;28;20472;-84
2022/08/11 16:40:40;;;;;;;6.25;2.20;;;30.60;56.40;;;;;;5035098;28;20041;-83
2022/08/11 16:48:41;;;;;;;4.22;1.95;;;33.20;54.80;;;;;;5019065;28;20486;-81
2022/08/11 16:51:10;;;;;;;10.30;9.10;;;33.70;54.60;;;;;;5034523;28;20033;-82
2022/08/11 16:53:38;;;;;;;8.85;7.93;;;33.60;54.40;;;;;;5031053;28;20042;-82
2022/08/11 16:56:05;;;;;;;5.90;2.03;;;33.10;54.60;;;;;;5017137;28;20037;-82
2022/08/11 17:01:20;;;;;;;2.35;1.45;;;32.20;55.00;;;;;;5033997;28;20474;-83
2022/08/11 17:15:02;;;;;;;2.45;1.50;;;30.90;56.20;;;;;;5019659;28;20045;-83
2022/08/11 17:17:37;;;;;;;6.32;1.50;;;30.70;56.40;;;;;;5032882;28;20045;-82
2022/08/11 17:20:08;;;;;;;2.45;1.42;;;30.60;56.50;;;;;;5033948;28;20049;-82
2022/08/11 17:25:24;;;;;;;3.60;1.70;;;30.40;57.00;;;;;;5033458;28;20140;-82
2022/08/11 17:27:53;;;;;;;3.95;1.92;;;30.30;57.00;;;;;;5033547;28;20041;-82
2022/08/11 17:30:19;;;;;;;2.97;1.80;;;30.20;56.90;;;;;;5033277;28;20671;-82
2022/08/11 17:35:38;;;;;;;5.05;1.80;;;30.20;57.30;;;;;;5033341;28;20091;-82
2022/08/11 17:38:06;;;;;;;2.13;1.50;;;30.00;57.60;;;;;;5032618;28;20041;-82
2022/08/11 17:40:37;;;;;;;5.50;2.10;;;29.90;58.50;;;;;;5032908;28;20075;-82
2022/08/11 17:48:42;;;;;;;3.58;1.75;;;29.40;60.40;;;;;;5032699;28;20053;-82
2022/08/11 17:51:11;;;;;;;5.82;1.83;;;29.20;61.00;;;;;;5032554;28;20030;-82
2022/08/11 18:03:28;;;;;;;5.55;1.67;;;28.80;62.00;;;;;;5031084;28;20677;-76
2022/08/11 18:04:51;;;;;;;4.53;1.55;;;28.80;62.40;;;;;;5031048;28;20110;-76
